Time;durP1;ratioP1;P1;durP2;ratioP2;P2;SDS_P1;SDS_P2;PMS_P1;PMS_P2;Temp;Humidity;BMP_temperature;BMP_pressure;BME280_temperature;BME280_humidity;BME280_pressure;Samples;Min_cycle;Max_cycle;Signal;HPM_P1;HPM_P2
2022/03/19 00:02:26;;;;;;;16.10;8.08;;;;;;;-3.08;55.16;103493.55;1744736;81;21117;-73
2022/03/19 00:04:55;;;;;;;13.30;7.65;;;;;;;-3.12;54.93;103482.67;1744596;81;21003;-74
2022/03/19 00:07:22;;;;;;;12.50;6.97;;;;;;;-3.15;55.10;103479.98;1744609;82;20912;-72
2022/03/19 00:09:49;;;;;;;10.85;6.62;;;;;;;-3.15;54.91;103479.58;1744475;81;20925;-74
2022/03/19 00:12:16;;;;;;;10.32;5.33;;;;;;;-3.14;54.61;103479.16;1744657;82;20916;-73
2022/03/19 00:14:44;;;;;;;12.78;6.20;;;;;;;-3.21;54.36;103474.17;1744627;81;21638;-73
2022/03/19 00:17:11;;;;;;;12.05;6.62;;;;;;;-3.38;54.34;103468.33;1744463;80;20933;-74
2022/03/19 00:19:39;;;;;;;10.93;6.20;;;;;;;-3.51;54.41;103472.45;1744694;81;20979;-73
2022/03/19 00:22:07;;;;;;;11.43;6.45;;;;;;;-3.58;54.72;103471.30;1744534;81;21386;-73
2022/03/19 00:24:35;;;;;;;11.35;7.25;;;;;;;-3.68;54.77;103466.55;1744519;80;20913;-74
2022/03/19 00:27:03;;;;;;;14.25;7.37;;;;;;;-3.75;54.95;103470.53;1744640;82;21225;-74
2022/03/19 00:29:31;;;;;;;11.73;6.40;;;;;;;-3.79;55.15;103462.22;1753291;81;20983;-74
2022/03/19 00:31:58;;;;;;;11.45;6.40;;;;;;;-3.75;55.49;103470.53;1757954;81;20944;-74
2022/03/19 00:34:25;;;;;;;9.55;5.95;;;;;;;-3.75;55.83;103470.53;1757921;81;21009;-73
2022/03/19 00:36:53;;;;;;;13.55;7.67;;;;;;;-3.68;56.76;103472.97;1757845;81;20889;-73
2022/03/19 00:39:20;;;;;;;13.30;7.75;;;;;;;-3.56;57.04;103476.09;1757953;81;21217;-73
2022/03/19 00:41:48;;;;;;;11.22;6.70;;;;;;;-3.48;57.15;103472.98;1757868;80;21471;-74
2022/03/19 00:44:15;;;;;;;16.85;8.18;;;;;;;-3.46;56.95;103472.65;1757806;81;20857;-72
2022/03/19 00:46:43;;;;;;;19.37;12.33;;;;;;;-3.47;56.95;103469.18;1758003;81;20932;-73
2022/03/19 00:49:10;;;;;;;31.87;20.27;;;;;;;-3.45;57.03;103464.13;1757947;81;20959;-73
2022/03/19 00:51:39;;;;;;;52.75;26.25;;;;;;;-3.43;57.22;103463.37;1757945;81;21107;-74
2022/03/19 00:54:07;;;;;;;38.83;22.32;;;;;;;-3.39;57.19;103474.25;1757791;81;20904;-74
2022/03/19 00:56:34;;;;;;;42.67;21.35;;;;;;;-3.41;57.37;103463.04;1757820;80;20885;-74
2022/03/19 00:59:01;;;;;;;53.08;29.18;;;;;;;-3.43;57.27;103463.79;1757861;81;20960;-73
2022/03/19 01:01:28;;;;;;;31.33;17.32;;;;;;;-3.50;57.21;103465.20;1757861;81;21007;-73
2022/03/19 01:03:55;;;;;;;29.82;15.90;;;;;;;-3.62;56.98;103465.55;1757935;80;21390;-74
2022/03/19 01:06:23;;;;;;;29.32;15.90;;;;;;;-3.81;56.94;103465.12;1757809;81;21398;-72
2022/03/19 01:08:51;;;;;;;27.05;14.55;;;;;;;-3.98;57.30;103465.65;1757917;80;20952;-73
2022/03/19 01:11:23;;;;;;;35.05;14.38;;;;;;;-4.08;57.44;103466.02;1757867;81;20916;-73
2022/03/19 01:13:51;;;;;;;27.98;14.45;;;;;;;-4.14;57.66;103461.01;1757903;81;21374;-73
2022/03/19 01:16:19;;;;;;;23.92;13.45;;;;;;;-4.19;57.79;103463.36;1757806;80;20944;-74
2022/03/19 01:18:47;;;;;;;25.57;14.58;;;;;;;-4.19;57.78;103471.91;1758080;81;20888;-74
2022/03/19 01:21:14;;;;;;;21.75;13.35;;;;;;;-4.23;57.71;103466.58;1757860;81;20896;-74
2022/03/19 01:23:43;;;;;;;28.30;15.53;;;;;;;-4.32;58.04;103462.30;1757780;81;21449;-73
2022/03/19 01:26:10;;;;;;;23.85;13.95;;;;;;;-4.35;58.40;103463.45;1757958;81;20931;-74
2022/03/19 01:28:38;;;;;;;17.98;9.10;;;;;;;-4.33;58.56;103461.44;1755749;80;21153;-73
2022/03/19 01:31:05;;;;;;;31.93;16.55;;;;;;;-4.30;58.53;103466.69;1744501;80;20885;-73
2022/03/19 01:33:34;;;;;;;31.42;15.78;;;;;;;-4.30;58.53;103464.54;1744465;81;20936;-73
2022/03/19 01:36:01;;;;;;;34.80;19.85;;;;;;;-4.30;58.46;103469.25;1744560;82;20980;-74
2022/03/19 01:38:29;;;;;;;37.42;21.73;;;;;;;-4.28;58.42;103462.93;1744613;82;21548;-72
2022/03/19 01:40:58;;;;;;;49.90;26.95;;;;;;;-4.30;58.47;103457.73;1744579;82;21783;-72
2022/03/19 01:43:26;;;;;;;39.92;22.82;;;;;;;-4.30;58.47;103459.41;1710577;82;20932;-72
2022/03/19 01:45:53;;;;;;;40.95;25.62;;;;;;;-4.32;58.42;103458.05;1744544;82;20857;-74
2022/03/19 01:48:21;;;;;;;37.17;22.27;;;;;;;-4.33;58.64;103457.59;1744757;82;21053;-72
2022/03/19 01:50:50;;;;;;;34.83;19.75;;;;;;;-4.34;58.60;103454.54;1744465;81;20953;-73
2022/03/19 01:53:17;;;;;;;31.85;18.73;;;;;;;-4.37;58.75;103459.53;1744466;80;21828;-73
2022/03/19 01:55:45;;;;;;;28.10;16.48;;;;;;;-4.44;58.59;103460.05;1744406;81;20858;-73
2022/03/19 01:58:12;;;;;;;21.68;12.58;;;;;;;-4.54;58.49;103458.71;1744509;81;21572;-73
2022/03/19 02:00:40;;;;;;;24.80;13.03;;;;;;;-4.66;58.60;103467.09;1744439;81;21391;-73
2022/03/19 02:03:09;;;;;;;19.70;11.33;;;;;;;-4.74;58.56;103464.14;1744591;81;20913;-73
2022/03/19 02:05:37;;;;;;;17.10;9.80;;;;;;;-4.82;58.65;103461.63;1744555;82;21133;-73
2022/03/19 02:08:04;;;;;;;19.48;10.38;;;;;;;-4.86;58.72;103454.59;1744477;81;20850;-72
2022/03/19 02:10:34;;;;;;;16.10;9.78;;;;;;;-4.89;58.74;103455.33;1744415;81;20924;-72
2022/03/19 02:13:01;;;;;;;16.85;10.53;;;;;;;-4.89;58.83;103456.61;1744427;81;21503;-72
2022/03/19 02:15:28;;;;;;;22.95;11.85;;;;;;;-4.86;58.85;103455.88;1744769;82;20964;-73
2022/03/19 02:17:57;;;;;;;22.17;12.23;;;;;;;-4.83;59.02;103459.45;1744595;81;20909;-72
2022/03/19 02:20:24;;;;;;;21.97;12.33;;;;;;;-4.79;59.20;103463.92;1744656;82;20928;-72
2022/03/19 02:25:40;;;;;;;24.12;12.82;;;;;;;-4.70;59.62;103460.06;1744664;81;21474;-73
2022/03/19 02:28:08;;;;;;;25.77;13.55;;;;;;;-4.68;59.41;103462.30;1744566;81;21043;-73
2022/03/19 02:30:39;;;;;;;22.95;12.63;;;;;;;-4.74;59.15;103461.99;1744643;81;21178;-73
2022/03/19 02:33:06;;;;;;;23.73;13.10;;;;;;;-4.86;59.07;103461.87;1744539;81;20854;-73
2022/03/19 02:35:34;;;;;;;25.20;12.70;;;;;;;-4.95;59.11;103463.10;1744562;82;20897;-73
2022/03/19 02:38:00;;;;;;;24.00;12.47;;;;;;;-5.00;59.49;103462.47;1744578;81;20944;-74
2022/03/19 02:40:29;;;;;;;27.02;14.55;;;;;;;-5.02;59.66;103459.36;1744765;82;21051;-73
2022/03/19 02:42:56;;;;;;;20.37;13.43;;;;;;;-5.09;60.01;103467.13;1744668;81;21176;-72
2022/03/19 02:45:23;;;;;;;43.15;19.77;;;;;;;-5.06;60.15;103463.84;1744804;81;21473;-73
2022/03/19 02:47:57;;;;;;;42.20;22.93;;;;;;;-5.05;60.49;103459.18;1744545;81;20936;-73
2022/03/19 02:50:31;;;;;;;46.10;24.35;;;;;;;-5.04;60.27;103467.35;1744596;81;20936;-75
2022/03/19 02:53:00;;;;;;;29.55;16.77;;;;;;;-5.09;60.18;103464.94;1744746;81;20971;-73
2022/03/19 02:55:33;;;;;;;35.58;16.50;;;;;;;-5.16;60.14;103469.28;1744730;81;21794;-72
2022/03/19 02:58:01;;;;;;;27.62;13.60;;;;;;;-5.26;60.14;103470.50;1744548;82;21446;-73
2022/03/19 03:00:29;;;;;;;29.80;14.80;;;;;;;-5.34;60.29;103471.77;1744538;81;20944;-73
2022/03/19 03:02:56;;;;;;;27.17;13.85;;;;;;;-5.39;60.48;103471.54;1744550;82;20900;-74
2022/03/19 03:05:24;;;;;;;26.93;14.68;;;;;;;-5.44;60.58;103479.38;1744707;81;20861;-73
2022/03/19 03:07:51;;;;;;;25.97;14.43;;;;;;;-5.49;60.69;103479.14;1744640;82;21148;-73
2022/03/19 03:10:19;;;;;;;24.87;15.43;;;;;;;-5.52;60.99;103477.69;1744511;82;20932;-73
2022/03/19 03:12:47;;;;;;;27.90;15.00;;;;;;;-5.54;61.18;103476.72;1744633;81;20889;-72
2022/03/19 03:15:15;;;;;;;30.40;15.60;;;;;;;-5.53;61.24;103474.66;1744624;82;20905;-72
2022/03/19 03:17:41;;;;;;;29.00;14.95;;;;;;;-5.49;61.33;103475.31;1744707;81;20873;-72
2022/03/19 03:20:10;;;;;;;27.42;15.55;;;;;;;-5.47;61.14;103474.98;1744556;82;20893;-74
2022/03/19 03:22:42;;;;;;;26.65;15.28;;;;;;;-5.51;61.13;103478.18;1744592;82;20957;-72
2022/03/19 03:25:08;;;;;;;28.47;14.87;;;;;;;-5.56;61.25;103476.16;1744602;81;21402;-73
2022/03/19 03:27:36;;;;;;;31.17;15.90;;;;;;;-5.58;61.71;103485.42;1744525;81;20873;-74
2022/03/19 03:30:04;;;;;;;28.73;15.60;;;;;;;-5.51;61.82;103491.37;1745115;81;21462;-74
2022/03/19 03:32:31;;;;;;;27.17;15.10;;;;;;;-5.51;61.49;103494.80;1744527;81;21538;-74
2022/03/19 03:34:59;;;;;;;29.32;15.60;;;;;;;-5.57;61.05;103494.88;1744459;81;21501;-73
2022/03/19 03:37:28;;;;;;;31.52;16.42;;;;;;;-5.69;61.00;103502.75;1744669;81;20948;-75
2022/03/19 03:39:54;;;;;;;31.35;16.87;;;;;;;-5.79;61.24;103501.79;1744696;81;20861;-74
2022/03/19 03:42:22;;;;;;;33.05;16.65;;;;;;;-5.84;61.36;103507.94;1744595;81;20968;-74
2022/03/19 03:44:54;;;;;;;34.45;18.45;;;;;;;-5.84;61.53;103514.32;1744586;81;20929;-72
2022/03/19 03:47:20;;;;;;;32.35;15.75;;;;;;;-5.82;61.66;103507.63;1744460;81;20940;-73
2022/03/19 03:49:49;;;;;;;32.83;15.85;;;;;;;-5.79;61.66;103509.05;1744578;82;20940;-73
2022/03/19 03:52:17;;;;;;;24.10;14.73;;;;;;;-5.76;61.47;103504.50;1744808;81;20861;-74
2022/03/19 03:54:46;;;;;;;31.73;16.95;;;;;;;-5.78;61.44;103512.11;1744662;81;20924;-73
2022/03/19 03:57:13;;;;;;;29.37;16.52;;;;;;;-5.81;61.47;103512.33;1744514;81;21050;-73
2022/03/19 03:59:40;;;;;;;31.62;17.17;;;;;;;-5.87;61.46;103512.48;1744474;81;20933;-72
2022/03/19 04:02:07;;;;;;;33.45;17.32;;;;;;;-5.92;61.65;103510.45;1734298;82;20893;-74
2022/03/19 04:04:36;;;;;;;28.35;15.40;;;;;;;-5.94;61.80;103513.36;1744515;81;20909;-74
2022/03/19 04:07:03;;;;;;;41.45;17.25;;;;;;;-5.96;61.80;103508.56;1744625;81;20900;-74
2022/03/19 04:09:32;;;;;;;32.67;16.67;;;;;;;-6.00;61.87;103508.81;1744516;81;21128;-74
2022/03/19 04:11:59;;;;;;;30.52;17.23;;;;;;;-5.97;61.81;103505.13;1744610;80;21019;-74
2022/03/19 04:14:27;;;;;;;32.88;16.93;;;;;;;-5.92;61.82;103509.18;1744718;81;21110;-74
2022/03/19 04:16:54;;;;;;;30.20;15.55;;;;;;;-5.89;61.70;103501.67;1744578;81;20893;-73
2022/03/19 04:19:21;;;;;;;29.05;14.25;;;;;;;-5.86;61.65;103502.73;1744597;81;20900;-74
2022/03/19 04:21:49;;;;;;;34.18;17.52;;;;;;;-5.80;61.51;103511.14;1744615;81;21889;-74
2022/03/19 04:24:16;;;;;;;29.90;17.12;;;;;;;-5.79;61.38;103517.13;1744526;81;20850;-74
2022/03/19 04:26:43;;;;;;;26.82;16.95;;;;;;;-5.77;61.32;103516.41;1744565;81;20889;-74
2022/03/19 04:29:10;;;;;;;34.50;20.72;;;;;;;-5.72;61.37;103520.48;1744509;81;20912;-73
2022/03/19 04:31:37;;;;;;;35.05;18.23;;;;;;;-5.64;61.51;103520.10;1744630;81;20863;-75
2022/03/19 04:34:06;;;;;;;30.37;17.05;;;;;;;-5.52;61.41;103523.70;1744550;81;21659;-74
2022/03/19 04:36:37;;;;;;;30.40;16.57;;;;;;;-5.42;61.26;103530.20;1744532;81;20897;-74
2022/03/19 04:39:06;;;;;;;30.27;17.48;;;;;;;-5.25;61.17;103534.91;1744622;82;20928;-73
2022/03/19 04:41:33;;;;;;;35.05;17.12;;;;;;;-5.06;60.68;103535.06;1744475;81;21016;-74
2022/03/19 04:44:01;;;;;;;29.52;16.25;;;;;;;-4.85;60.45;103544.64;1744621;81;20909;-74
2022/03/19 04:46:30;;;;;;;42.88;19.00;;;;;;;-4.64;60.11;103553.41;1744499;81;20937;-74
2022/03/19 04:48:58;;;;;;;49.18;22.17;;;;;;;-4.39;59.79;103554.22;1744524;82;20984;-74
2022/03/19 04:51:33;;;;;;;37.55;19.10;;;;;;;-4.18;59.23;103553.12;1744488;81;20885;-74
2022/03/19 04:54:02;;;;;;;33.28;19.37;;;;;;;-3.89;58.99;103555.29;1744597;81;21008;-74
2022/03/19 04:56:30;;;;;;;34.73;20.90;;;;;;;-3.55;58.47;103561.60;1744631;82;20940;-74
2022/03/19 04:59:00;;;;;;;36.80;18.55;;;;;;;-3.22;57.90;103561.38;1744500;81;21421;-75
2022/03/19 05:01:29;;;;;;;42.55;21.62;;;;;;;-2.66;57.14;103564.64;1744830;82;20874;-76
2022/03/19 05:03:58;;;;;;;34.40;19.92;;;;;;;-1.99;56.07;103561.38;1744584;82;20909;-74
2022/03/19 05:06:25;;;;;;;46.35;24.35;;;;;;;-1.23;54.74;103561.25;1744394;82;20896;-73
2022/03/19 05:11:40;;;;;;;44.85;24.23;;;;;;;0.21;51.73;103557.05;1744617;81;21158;-73
2022/03/19 05:14:09;;;;;;;36.80;22.52;;;;;;;1.00;50.05;103562.75;1744447;82;21023;-75
2022/03/19 05:16:37;;;;;;;42.98;25.02;;;;;;;1.66;48.70;103561.46;1744466;81;20928;-75
2022/03/19 05:19:04;;;;;;;37.85;21.95;;;;;;;2.25;47.54;103561.55;1744883;81;20978;-73
2022/03/19 05:21:33;;;;;;;19.60;12.23;;;;;;;2.80;45.84;103561.81;1744583;81;21410;-74
2022/03/19 05:24:01;;;;;;;21.17;11.80;;;;;;;3.24;43.80;103555.31;1744635;81;20937;-74
2022/03/19 05:26:30;;;;;;;21.15;13.30;;;;;;;3.64;42.69;103560.75;1744453;81;20933;-75
2022/03/19 05:28:58;;;;;;;14.60;9.78;;;;;;;3.91;42.37;103556.84;1744465;81;21035;-75
2022/03/19 05:31:27;;;;;;;17.55;9.65;;;;;;;4.04;41.22;103565.27;1744498;81;21021;-75
2022/03/19 05:36:43;;;;;;;20.25;10.82;;;;;;;3.98;38.84;103565.59;1735788;80;20908;-75
2022/03/19 05:39:12;;;;;;;13.05;8.70;;;;;;;3.92;38.51;103569.86;1744483;82;21422;-74
2022/03/19 05:41:39;;;;;;;16.02;10.05;;;;;;;4.01;38.05;103569.13;1744611;82;20977;-75
2022/03/19 05:44:06;;;;;;;15.70;10.53;;;;;;;3.94;37.58;103575.09;1744546;82;20897;-74
2022/03/19 05:46:34;;;;;;;16.85;11.25;;;;;;;3.71;38.16;103574.70;1744541;81;21425;-74
2022/03/19 05:49:02;;;;;;;20.65;10.93;;;;;;;3.59;38.38;103568.03;1744470;80;21636;-76
2022/03/19 05:51:31;;;;;;;21.00;9.85;;;;;;;3.73;38.65;103568.72;1744654;81;20869;-74
2022/03/19 05:53:59;;;;;;;17.60;11.35;;;;;;;4.04;38.39;103576.09;1744705;80;20929;-75
2022/03/19 05:56:27;;;;;;;20.40;11.48;;;;;;;4.42;37.32;103575.33;1744694;81;20932;-75
2022/03/19 05:58:55;;;;;;;13.60;9.60;;;;;;;4.81;36.72;103579.73;1745026;81;20889;-73
2022/03/19 06:01:26;;;;;;;21.35;10.72;;;;;;;5.23;36.50;103584.53;1744587;81;21160;-74
2022/03/19 06:03:54;;;;;;;18.57;11.25;;;;;;;5.67;35.58;103578.87;1744749;81;20861;-73
2022/03/19 06:06:21;;;;;;;20.17;11.55;;;;;;;5.97;34.94;103574.77;1744589;81;20932;-74
2022/03/19 06:08:49;;;;;;;18.92;11.05;;;;;;;6.19;34.70;103583.16;1744527;81;20991;-74
2022/03/19 06:11:16;;;;;;;17.62;11.40;;;;;;;6.61;34.32;103584.26;1744698;81;20885;-73
2022/03/19 06:13:43;;;;;;;14.58;10.70;;;;;;;6.96;33.50;103579.61;1744918;81;21101;-74
2022/03/19 06:16:11;;;;;;;16.40;10.28;;;;;;;7.23;32.87;103580.10;1744573;81;21465;-74
2022/03/19 06:18:38;;;;;;;18.27;10.65;;;;;;;7.38;31.96;103584.89;1744664;81;21027;-75
2022/03/19 06:21:05;;;;;;;16.95;10.35;;;;;;;7.53;31.98;103574.91;1744526;82;20924;-74
2022/03/19 06:23:32;;;;;;;16.50;10.95;;;;;;;7.78;31.73;103574.05;1744723;80;21307;-74
2022/03/19 06:25:59;;;;;;;17.85;12.65;;;;;;;8.16;31.61;103576.15;1744645;82;21772;-74
2022/03/19 06:28:26;;;;;;;17.52;11.03;;;;;;;8.32;31.28;103580.48;1744607;81;21458;-74
2022/03/19 06:30:54;;;;;;;18.05;10.50;;;;;;;8.30;30.78;103577.86;1749641;81;20901;-75
2022/03/19 06:33:21;;;;;;;13.08;9.80;;;;;;;8.36;30.55;103572.17;1757874;80;20924;-75
2022/03/19 06:38:35;;;;;;;17.00;10.75;;;;;;;8.60;29.69;103579.97;1758009;81;21792;-73
2022/03/19 06:41:02;;;;;;;13.98;8.58;;;;;;;8.76;30.16;103582.11;1757921;81;20959;-73
2022/03/19 06:43:30;;;;;;;11.35;8.93;;;;;;;9.10;29.46;103576.69;1758028;81;20998;-74
2022/03/19 06:45:58;;;;;;;13.85;8.63;;;;;;;9.34;29.63;103574.34;1741150;81;20912;-74
2022/03/19 06:48:26;;;;;;;12.63;8.50;;;;;;;9.76;29.16;103570.95;1758014;80;21104;-75
2022/03/19 06:50:54;;;;;;;15.68;8.28;;;;;;;10.20;28.86;103576.62;1758037;81;21808;-75
2022/03/19 06:53:23;;;;;;;12.13;9.13;;;;;;;10.46;27.66;103566.73;1758073;80;20987;-76
2022/03/19 06:55:51;;;;;;;14.63;8.90;;;;;;;10.51;27.14;103558.80;1757917;80;21417;-75
2022/03/19 06:58:21;;;;;;;11.12;8.15;;;;;;;10.86;26.87;103558.79;1757869;81;20979;-75
2022/03/19 07:00:49;;;;;;;13.83;8.50;;;;;;;10.86;26.87;103558.79;1758178;81;20912;-75
2022/03/19 07:03:16;;;;;;;12.75;8.35;;;;;;;11.04;26.59;103566.40;1757977;81;21064;-73
2022/03/19 07:05:43;;;;;;;11.35;7.58;;;;;;;11.30;26.37;103553.33;1757881;80;20936;-75
2022/03/19 07:08:10;;;;;;;9.00;8.05;;;;;;;11.30;26.37;103553.33;1757894;81;21540;-74
2022/03/19 07:10:37;;;;;;;12.78;8.23;;;;;;;11.40;25.92;103545.70;1757779;80;21469;-74
2022/03/19 07:13:04;;;;;;;13.03;8.68;;;;;;;11.32;25.85;103544.53;1757597;81;21386;-74
2022/03/19 07:15:33;;;;;;;9.98;7.30;;;;;;;11.35;25.50;103531.78;1757995;81;20849;-74
2022/03/19 07:18:01;;;;;;;9.73;8.10;;;;;;;11.34;25.47;103540.57;1757939;81;20924;-76
2022/03/19 07:20:29;;;;;;;9.63;8.60;;;;;;;11.43;25.76;103533.84;1758182;81;21355;-73
2022/03/19 07:23:03;;;;;;;12.95;7.45;;;;;;;11.60;25.67;103533.54;1757882;81;20919;-74
2022/03/19 07:25:35;;;;;;;10.75;7.12;;;;;;;11.87;25.18;103534.80;1758002;80;20912;-74
2022/03/19 07:28:06;;;;;;;8.68;6.28;;;;;;;12.14;24.57;103534.77;1757803;81;21478;-74
2022/03/19 07:30:33;;;;;;;11.33;7.75;;;;;;;12.32;23.73;103525.64;1756758;80;20956;-75
2022/03/19 07:33:00;;;;;;;8.00;7.05;;;;;;;12.22;23.67;103523.62;1756944;81;20931;-74
2022/03/19 07:35:28;;;;;;;14.40;7.95;;;;;;;12.26;23.98;103529.70;1756877;81;20908;-74
2022/03/19 07:37:57;;;;;;;13.38;7.22;;;;;;;12.41;23.21;103524.59;1756883;80;20980;-74
2022/03/19 07:43:12;;;;;;;11.73;7.53;;;;;;;12.46;22.85;103520.54;1756718;81;21048;-74
2022/03/19 07:45:40;;;;;;;11.55;6.72;;;;;;;12.63;22.94;103531.58;1757788;81;20940;-76
2022/03/19 07:48:08;;;;;;;10.90;6.90;;;;;;;12.82;22.87;103536.83;1757949;81;20912;-76
2022/03/19 07:50:35;;;;;;;9.08;7.05;;;;;;;12.99;22.60;103535.59;1757868;81;20884;-74
2022/03/19 07:53:03;;;;;;;8.85;7.45;;;;;;;12.91;22.49;103533.12;1757857;81;21517;-74
2022/03/19 07:55:31;;;;;;;6.53;5.60;;;;;;;12.83;22.88;103535.08;1757824;80;20904;-74
2022/03/19 07:57:58;;;;;;;7.47;5.97;;;;;;;13.11;22.43;103535.28;1741362;81;21387;-74
2022/03/19 08:00:25;;;;;;;10.68;6.80;;;;;;;13.33;22.03;103536.98;1757860;81;20936;-75
2022/03/19 08:02:52;;;;;;;8.55;6.28;;;;;;;13.41;21.32;103532.86;1757999;81;20944;-75
2022/03/19 08:05:19;;;;;;;7.40;6.15;;;;;;;13.24;21.77;103528.81;1758660;81;21072;-75
2022/03/19 08:07:48;;;;;;;7.12;5.67;;;;;;;13.34;21.96;103527.30;1757940;81;20888;-75
2022/03/19 08:10:15;;;;;;;5.95;5.35;;;;;;;13.44;21.19;103524.40;1757788;81;21303;-76
2022/03/19 08:12:43;;;;;;;6.78;5.05;;;;;;;13.16;21.21;103521.57;1757797;80;20912;-75
2022/03/19 08:15:11;;;;;;;6.50;5.03;;;;;;;13.05;21.31;103516.56;1757996;81;20987;-75
2022/03/19 08:17:41;;;;;;;6.35;4.12;;;;;;;13.03;20.92;103512.23;1757991;81;21079;-77
2022/03/19 08:20:09;;;;;;;9.05;4.35;;;;;;;13.00;21.07;103509.19;1758056;81;20919;-75
2022/03/19 08:22:38;;;;;;;6.15;4.75;;;;;;;12.99;20.69;103506.16;1757874;81;20896;-76
2022/03/19 08:25:07;;;;;;;6.50;4.80;;;;;;;12.78;21.37;103502.27;1757874;81;20897;-75
2022/03/19 08:27:35;;;;;;;6.62;5.22;;;;;;;12.91;22.00;103513.36;1757950;81;21354;-74
2022/03/19 08:30:06;;;;;;;6.97;4.95;;;;;;;13.03;21.32;103506.50;1756623;81;20979;-74
2022/03/19 08:32:34;;;;;;;9.83;5.87;;;;;;;13.28;21.46;103512.52;1756990;81;21304;-74
2022/03/19 08:35:01;;;;;;;6.15;4.87;;;;;;;13.54;20.90;103503.95;1756105;81;21014;-74
2022/03/19 08:37:29;;;;;;;4.80;3.87;;;;;;;13.83;21.07;103504.49;1757124;81;20955;-76
2022/03/19 08:42:52;;;;;;;5.17;4.20;;;;;;;14.23;20.14;103498.09;1757406;81;21101;-75
2022/03/19 08:45:21;;;;;;;4.75;3.35;;;;;;;14.41;19.68;103501.09;1757647;81;20877;-76
2022/03/19 08:47:50;;;;;;;5.15;3.70;;;;;;;14.57;19.60;103493.60;1757813;81;20998;-76
2022/03/19 08:50:17;;;;;;;6.58;3.35;;;;;;;14.69;19.04;103491.88;1758276;81;21395;-76
2022/03/19 08:52:44;;;;;;;6.75;3.55;;;;;;;14.61;19.16;103486.85;1758074;81;20900;-75
2022/03/19 08:55:12;;;;;;;3.50;3.20;;;;;;;14.61;19.21;103488.17;1757982;80;21126;-76
2022/03/19 08:57:39;;;;;;;6.22;3.90;;;;;;;14.73;18.59;103492.20;1757957;81;20960;-76
2022/03/19 09:00:08;;;;;;;5.95;3.83;;;;;;;14.62;18.17;103500.45;1757847;80;20873;-76
2022/03/19 09:02:35;;;;;;;6.37;3.95;;;;;;;14.24;18.79;103492.34;1757870;81;20984;-76
2022/03/19 09:05:02;;;;;;;5.00;3.85;;;;;;;14.13;18.85;103495.29;1758194;81;21402;-75
2022/03/19 09:07:31;;;;;;;4.87;4.10;;;;;;;14.21;18.52;103493.77;1757781;81;20987;-74
2022/03/19 09:09:58;;;;;;;6.50;5.05;;;;;;;14.29;18.80;103493.06;1758045;81;21311;-75
2022/03/19 09:12:26;;;;;;;6.78;4.60;;;;;;;14.08;18.85;103478.27;1757753;81;20849;-74
2022/03/19 09:14:55;;;;;;;5.75;4.65;;;;;;;13.97;18.90;103486.95;1757813;81;20943;-76
2022/03/19 09:17:21;;;;;;;5.70;4.70;;;;;;;13.94;19.38;103485.73;1757875;81;20927;-76
2022/03/19 09:19:50;;;;;;;9.60;4.80;;;;;;;14.19;18.66;103482.38;1757792;81;20936;-75
2022/03/19 09:22:20;;;;;;;8.20;4.50;;;;;;;14.37;18.79;103473.05;1758056;81;21042;-75
2022/03/19 09:24:48;;;;;;;5.05;4.10;;;;;;;14.27;18.96;103479.04;1757922;81;20861;-76
2022/03/19 09:27:18;;;;;;;8.85;4.90;;;;;;;14.39;18.55;103480.01;1757766;81;21414;-75
2022/03/19 09:29:46;;;;;;;5.90;4.55;;;;;;;14.35;18.41;103462.99;1758167;81;21387;-75
2022/03/19 09:32:13;;;;;;;6.87;4.03;;;;;;;14.29;19.05;103476.80;1751143;80;21085;-76
2022/03/19 09:34:41;;;;;;;13.08;6.50;;;;;;;14.41;18.91;103467.63;1744635;81;20936;-75
2022/03/19 09:37:08;;;;;;;7.33;5.10;;;;;;;14.35;18.51;103475.73;1744728;81;21439;-75
2022/03/19 09:39:35;;;;;;;7.80;4.62;;;;;;;14.50;18.70;103476.58;1744878;80;20865;-76
2022/03/19 09:42:04;;;;;;;6.60;3.87;;;;;;;14.73;18.73;103471.06;1744511;81;20904;-77
2022/03/19 09:46:00;;;;;;;6.70;3.40;;;;;;;14.63;18.47;103468.30;1883999;75;22420;-78
2022/03/19 09:48:27;;;;;;;13.18;5.03;;;;;;;14.54;17.60;103472.52;1860974;77;20871;-77
2022/03/19 09:50:55;;;;;;;9.40;5.70;;;;;;;14.39;17.48;103477.37;1861226;77;21281;-76
2022/03/19 09:53:24;;;;;;;6.28;4.67;;;;;;;14.16;18.28;103472.79;1860705;77;20963;-77
2022/03/19 09:55:53;;;;;;;8.40;4.58;;;;;;;14.31;18.75;103470.98;1860803;77;21333;-76
2022/03/19 09:58:20;;;;;;;6.35;3.60;;;;;;;14.76;18.23;103464.35;1860510;76;20922;-77
2022/03/19 10:00:47;;;;;;;6.05;3.65;;;;;;;14.90;17.61;103458.19;1860685;77;21049;-76
2022/03/19 10:03:15;;;;;;;4.60;3.15;;;;;;;14.82;17.71;103468.59;1860672;77;21119;-75
2022/03/19 10:08:43;;;;;;;5.33;4.62;;;;;;;14.51;17.60;103457.63;1860652;77;20852;-75
2022/03/19 10:11:13;;;;;;;7.42;3.80;;;;;;;13.91;17.71;103457.23;1860619;77;20994;-75
2022/03/19 10:13:42;;;;;;;4.25;3.67;;;;;;;13.36;18.18;103459.17;1860647;77;20835;-76
2022/03/19 10:16:09;;;;;;;5.17;4.75;;;;;;;13.19;18.89;103459.56;1860680;77;21136;-76
2022/03/19 10:18:38;;;;;;;5.70;4.35;;;;;;;13.25;18.57;103458.52;1860669;77;20871;-75
2022/03/19 10:21:16;;;;;;;8.58;5.45;;;;;;;13.52;18.19;103457.41;1860715;77;20962;-75
2022/03/19 10:23:43;;;;;;;4.95;4.42;;;;;;;13.67;17.96;103460.53;1860652;77;20970;-75
2022/03/19 10:26:28;;;;;;;4.50;4.08;;;;;;;13.76;17.99;103449.30;1860763;77;20911;-75
2022/03/19 10:28:58;;;;;;;6.83;4.50;;;;;;;13.77;18.20;103457.17;1860695;77;21882;-75
2022/03/19 10:31:38;;;;;;;5.95;4.28;;;;;;;13.88;18.00;103443.69;1860818;76;20982;-74
2022/03/19 10:34:07;;;;;;;5.67;4.42;;;;;;;13.91;18.09;103442.73;1860614;77;21005;-76
2022/03/19 10:36:42;;;;;;;6.25;4.28;;;;;;;13.92;18.21;103440.05;1860538;76;21409;-74
2022/03/19 10:39:27;;;;;;;5.33;3.65;;;;;;;13.99;18.20;103438.11;1860682;77;21408;-75
2022/03/19 10:41:55;;;;;;;9.15;4.00;;;;;;;14.09;17.98;103432.52;1860582;77;21780;-74
2022/03/19 10:44:26;;;;;;;6.20;4.17;;;;;;;14.04;17.82;103440.14;1858152;77;21011;-74
2022/03/19 10:46:57;;;;;;;6.67;3.60;;;;;;;14.08;17.51;103432.09;1850461;77;20869;-75
2022/03/19 10:49:29;;;;;;;4.42;3.87;;;;;;;14.06;18.37;103432.59;1849927;77;21418;-76
2022/03/19 10:51:58;;;;;;;5.05;3.45;;;;;;;14.03;17.98;103430.05;1849844;77;20892;-74
2022/03/19 10:54:25;;;;;;;6.85;4.33;;;;;;;13.73;18.13;103427.83;1849942;77;21138;-75
2022/03/19 10:56:52;;;;;;;5.55;3.98;;;;;;;13.53;18.16;103424.42;1849357;77;20905;-76
2022/03/19 10:59:19;;;;;;;4.42;3.92;;;;;;;13.62;18.14;103428.59;1849191;77;20873;-75
2022/03/19 11:01:50;;;;;;;5.83;4.17;;;;;;;13.65;18.06;103421.47;1849579;77;20960;-76
2022/03/19 11:04:18;;;;;;;6.45;3.90;;;;;;;13.75;18.34;103424.70;1849239;76;21538;-74
2022/03/19 11:06:45;;;;;;;5.50;3.70;;;;;;;13.90;17.75;103404.94;1849589;77;21237;-76
2022/03/19 11:09:14;;;;;;;7.37;3.58;;;;;;;13.67;17.57;103428.89;1849193;76;20897;-76
2022/03/19 11:11:50;;;;;;;4.95;3.37;;;;;;;13.54;17.97;103424.86;1849689;77;20889;-76
2022/03/19 11:14:25;;;;;;;4.95;3.20;;;;;;;13.57;18.00;103410.72;1849243;76;21391;-76
2022/03/19 11:17:25;;;;;;;10.03;3.08;;;;;;;13.57;18.26;103404.98;1849358;77;20855;-74
2022/03/19 11:19:55;;;;;;;5.37;3.40;;;;;;;13.58;18.11;103407.16;1849194;77;21632;-73
2022/03/19 11:22:22;;;;;;;6.20;3.52;;;;;;;13.18;18.32;103400.30;1848652;77;20988;-74
2022/03/19 11:24:55;;;;;;;7.30;3.98;;;;;;;13.10;18.62;103404.92;1849089;76;20881;-75
2022/03/19 11:27:22;;;;;;;4.05;3.58;;;;;;;13.08;18.53;103402.78;1849219;77;20979;-74
2022/03/19 11:29:51;;;;;;;5.65;3.30;;;;;;;13.13;18.17;103409.64;1849286;77;20878;-74
2022/03/19 11:32:22;;;;;;;4.67;3.05;;;;;;;13.21;17.71;103396.28;1849184;77;21216;-76
2022/03/19 11:34:50;;;;;;;6.40;3.80;;;;;;;13.09;18.07;103394.81;1849509;77;20902;-76
2022/03/19 11:37:17;;;;;;;9.85;4.12;;;;;;;12.76;18.15;103389.52;1849241;77;20968;-76
2022/03/19 11:40:05;;;;;;;6.53;3.45;;;;;;;12.63;18.23;103388.09;1849276;77;20929;-74
2022/03/19 11:42:33;;;;;;;5.20;3.55;;;;;;;12.39;18.70;103379.86;1849173;77;20948;-77
2022/03/19 11:45:10;;;;;;;5.87;3.47;;;;;;;12.33;18.80;103378.68;1852300;77;21478;-75